sensor_id;sensor_type;location;lat;lon;timestamp;pressure;altitude;pressure_sealevel;temperature;humidity
71491;BME280;59307;50.060;9.150;2022-08-19T00:02:09;98406.25;;;18.67;80.45
71491;BME280;59307;50.060;9.150;2022-08-19T00:04:35;98404.09;;;18.69;80.47
71491;BME280;59307;50.060;9.150;2022-08-19T00:07:03;98411.25;;;18.77;80.26
71491;BME280;59307;50.060;9.150;2022-08-19T00:09:29;98399.16;;;18.76;80.65
71491;BME280;59307;50.060;9.150;2022-08-19T00:11:55;98404.59;;;18.79;79.98
71491;BME280;59307;50.060;9.150;2022-08-19T00:14:20;98407.97;;;18.80;79.52
71491;BME280;59307;50.060;9.150;2022-08-19T00:16:46;98405.34;;;18.80;80.50
71491;BME280;59307;50.060;9.150;2022-08-19T00:19:13;98404.59;;;18.79;79.72
71491;BME280;59307;50.060;9.150;2022-08-19T00:21:38;98395.44;;;18.77;79.43
71491;BME280;59307;50.060;9.150;2022-08-19T00:24:10;98385.22;;;18.84;78.95
71491;BME280;59307;50.060;9.150;2022-08-19T00:26:37;98382.72;;;18.87;78.51
71491;BME280;59307;50.060;9.150;2022-08-19T00:29:04;98390.81;;;18.91;79.17
71491;BME280;59307;50.060;9.150;2022-08-19T00:31:29;98387.38;;;18.99;79.00
71491;BME280;59307;50.060;9.150;2022-08-19T00:33:56;98381.31;;;18.98;79.09
71491;BME280;59307;50.060;9.150;2022-08-19T00:36:21;98373.91;;;19.09;79.50
71491;BME280;59307;50.060;9.150;2022-08-19T00:38:46;98374.34;;;19.02;79.18
71491;BME280;59307;50.060;9.150;2022-08-19T00:41:14;98368.31;;;19.02;79.03
71491;BME280;59307;50.060;9.150;2022-08-19T00:43:40;98377.78;;;19.03;78.31
71491;BME280;59307;50.060;9.150;2022-08-19T00:46:06;98380.56;;;18.98;78.15
71491;BME280;59307;50.060;9.150;2022-08-19T00:48:33;98380.22;;;19.08;78.07
71491;BME280;59307;50.060;9.150;2022-08-19T00:50:59;98377.31;;;19.09;78.11
71491;BME280;59307;50.060;9.150;2022-08-19T00:53:27;98369.25;;;19.14;78.50
71491;BME280;59307;50.060;9.150;2022-08-19T00:55:55;98369.69;;;19.08;77.41
71491;BME280;59307;50.060;9.150;2022-08-19T00:58:24;98363.97;;;19.06;77.87
71491;BME280;59307;50.060;9.150;2022-08-19T01:00:52;98343.06;;;19.09;76.98
71491;BME280;59307;50.060;9.150;2022-08-19T01:03:19;98335.28;;;19.13;77.15
71491;BME280;59307;50.060;9.150;2022-08-19T01:05:47;98334.81;;;19.19;76.63
71491;BME280;59307;50.060;9.150;2022-08-19T01:08:15;98339.00;;;19.20;75.80
71491;BME280;59307;50.060;9.150;2022-08-19T01:10:45;98339.94;;;19.16;76.33
71491;BME280;59307;50.060;9.150;2022-08-19T01:13:15;98358.34;;;19.24;76.23
71491;BME280;59307;50.060;9.150;2022-08-19T01:15:46;98366.56;;;19.23;75.76
71491;BME280;59307;50.060;9.150;2022-08-19T01:18:14;98368.59;;;19.26;74.97
71491;BME280;59307;50.060;9.150;2022-08-19T01:20:41;98366.72;;;19.26;74.87
71491;BME280;59307;50.060;9.150;2022-08-19T01:23:06;98361.00;;;19.33;74.22
71491;BME280;59307;50.060;9.150;2022-08-19T01:25:38;98360.22;;;19.33;74.48
71491;BME280;59307;50.060;9.150;2022-08-19T01:28:07;98353.09;;;19.33;74.52
71491;BME280;59307;50.060;9.150;2022-08-19T01:30:34;98350.63;;;19.28;74.92
71491;BME280;59307;50.060;9.150;2022-08-19T01:33:01;98336.50;;;19.24;74.71
71491;BME280;59307;50.060;9.150;2022-08-19T01:35:29;98341.94;;;19.27;74.98
71491;BME280;59307;50.060;9.150;2022-08-19T01:37:58;98342.25;;;19.26;74.74
71491;BME280;59307;50.060;9.150;2022-08-19T01:40:28;98339.47;;;19.22;74.77
71491;BME280;59307;50.060;9.150;2022-08-19T01:42:54;98346.75;;;19.17;75.25
71491;BME280;59307;50.060;9.150;2022-08-19T01:45:22;98347.06;;;19.15;75.30
71491;BME280;59307;50.060;9.150;2022-08-19T01:47:48;98341.16;;;19.10;75.37
71491;BME280;59307;50.060;9.150;2022-08-19T01:50:14;98343.81;;;19.10;75.31
71491;BME280;59307;50.060;9.150;2022-08-19T01:52:41;98352.03;;;19.17;74.72
71491;BME280;59307;50.060;9.150;2022-08-19T01:55:09;98352.03;;;19.17;74.79
71491;BME280;59307;50.060;9.150;2022-08-19T01:57:36;98357.31;;;19.08;75.45
71491;BME280;59307;50.060;9.150;2022-08-19T02:00:07;98360.09;;;19.12;75.42
71491;BME280;59307;50.060;9.150;2022-08-19T02:02:33;98367.22;;;19.11;75.47
71491;BME280;59307;50.060;9.150;2022-08-19T02:04:58;98373.44;;;19.07;75.30
71491;BME280;59307;50.060;9.150;2022-08-19T02:07:24;98374.66;;;19.18;74.87
71491;BME280;59307;50.060;9.150;2022-08-19T02:09:49;98368.31;;;19.10;75.65
71491;BME280;59307;50.060;9.150;2022-08-19T02:12:15;98372.66;;;19.06;75.76
71491;BME280;59307;50.060;9.150;2022-08-19T02:14:41;98375.13;;;19.11;75.42
71491;BME280;59307;50.060;9.150;2022-08-19T02:17:06;98378.06;;;19.10;75.36
71491;BME280;59307;50.060;9.150;2022-08-19T02:19:32;98389.84;;;19.12;75.69
71491;BME280;59307;50.060;9.150;2022-08-19T02:21:58;98384.75;;;19.07;75.99
71491;BME280;59307;50.060;9.150;2022-08-19T02:24:24;98389.88;;;19.04;75.92
71491;BME280;59307;50.060;9.150;2022-08-19T02:26:49;98391.41;;;19.05;75.59
71491;BME280;59307;50.060;9.150;2022-08-19T02:29:16;98385.22;;;19.09;75.49
71491;BME280;59307;50.060;9.150;2022-08-19T02:31:41;98376.53;;;19.09;75.50
71491;BME280;59307;50.060;9.150;2022-08-19T02:34:06;98378.22;;;19.05;75.49
71491;BME280;59307;50.060;9.150;2022-08-19T02:36:32;98381.81;;;19.09;76.01
71491;BME280;59307;50.060;9.150;2022-08-19T02:38:57;98379.94;;;19.01;75.94
71491;BME280;59307;50.060;9.150;2022-08-19T02:41:28;98384.28;;;19.05;76.39
71491;BME280;59307;50.060;9.150;2022-08-19T02:43:59;98375.91;;;19.03;76.47
71491;BME280;59307;50.060;9.150;2022-08-19T02:46:26;98375.59;;;19.05;76.28
71491;BME280;59307;50.060;9.150;2022-08-19T02:48:55;98387.69;;;19.06;75.89
71491;BME280;59307;50.060;9.150;2022-08-19T02:51:24;98391.41;;;19.05;76.01
71491;BME280;59307;50.060;9.150;2022-08-19T02:53:50;98391.56;;;19.08;76.12
71491;BME280;59307;50.060;9.150;2022-08-19T02:56:16;98388.31;;;19.03;76.05
71491;BME280;59307;50.060;9.150;2022-08-19T02:58:42;98390.03;;;19.07;76.08
71491;BME280;59307;50.060;9.150;2022-08-19T03:01:08;98388.59;;;19.10;75.33
71491;BME280;59307;50.060;9.150;2022-08-19T03:03:35;98381.81;;;19.09;76.11
71491;BME280;59307;50.060;9.150;2022-08-19T03:06:09;98383.66;;;19.17;75.82
71491;BME280;59307;50.060;9.150;2022-08-19T03:08:35;98382.59;;;19.09;75.52
71491;BME280;59307;50.060;9.150;2022-08-19T03:11:02;98386.75;;;19.10;76.04
71491;BME280;59307;50.060;9.150;2022-08-19T03:13:27;98386.28;;;19.08;75.93
71491;BME280;59307;50.060;9.150;2022-08-19T03:15:53;98390.16;;;19.02;76.37
71491;BME280;59307;50.060;9.150;2022-08-19T03:18:18;98399.00;;;19.06;76.37
71491;BME280;59307;50.060;9.150;2022-08-19T03:20:46;98401.63;;;19.06;75.75
71491;BME280;59307;50.060;9.150;2022-08-19T03:23:12;98400.06;;;19.14;76.13
71491;BME280;59307;50.060;9.150;2022-08-19T03:25:39;98402.41;;;19.07;76.16
71491;BME280;59307;50.060;9.150;2022-08-19T03:28:07;98387.53;;;19.02;76.29
71491;BME280;59307;50.060;9.150;2022-08-19T03:30:33;98394.50;;;19.07;76.48
71491;BME280;59307;50.060;9.150;2022-08-19T03:32:58;98386.13;;;19.05;76.43
71491;BME280;59307;50.060;9.150;2022-08-19T03:35:23;98386.59;;;19.07;76.26
71491;BME280;59307;50.060;9.150;2022-08-19T03:37:49;98385.06;;;19.14;76.21
71491;BME280;59307;50.060;9.150;2022-08-19T03:40:14;98383.97;;;19.07;76.00
71491;BME280;59307;50.060;9.150;2022-08-19T03:42:39;98388.94;;;19.00;76.66
71491;BME280;59307;50.060;9.150;2022-08-19T03:45:07;98394.06;;;18.96;76.96
71491;BME280;59307;50.060;9.150;2022-08-19T03:47:33;98390.94;;;19.03;76.25
71491;BME280;59307;50.060;9.150;2022-08-19T03:49:58;98396.66;;;19.13;75.85
71491;BME280;59307;50.060;9.150;2022-08-19T03:52:23;98403.03;;;19.12;76.65
71491;BME280;59307;50.060;9.150;2022-08-19T03:54:49;98402.41;;;19.07;76.59
71491;BME280;59307;50.060;9.150;2022-08-19T03:57:14;98401.16;;;19.04;76.56
71491;BME280;59307;50.060;9.150;2022-08-19T03:59:39;98399.63;;;19.03;75.96
71491;BME280;59307;50.060;9.150;2022-08-19T04:02:10;98403.34;;;19.02;75.68
71491;BME280;59307;50.060;9.150;2022-08-19T04:04:38;98398.53;;;18.96;77.44
71491;BME280;59307;50.060;9.150;2022-08-19T04:07:04;98403.97;;;18.91;77.67
71491;BME280;59307;50.060;9.150;2022-08-19T04:09:30;98400.69;;;18.85;77.77
71491;BME280;59307;50.060;9.150;2022-08-19T04:11:56;98401.81;;;18.76;77.79
71491;BME280;59307;50.060;9.150;2022-08-19T04:14:25;98405.34;;;18.80;78.59
71491;BME280;59307;50.060;9.150;2022-08-19T04:16:52;98397.31;;;18.85;77.43
71491;BME280;59307;50.060;9.150;2022-08-19T04:19:19;98399.31;;;18.88;77.86
71491;BME280;59307;50.060;9.150;2022-08-19T04:21:47;98403.97;;;18.99;76.69
71491;BME280;59307;50.060;9.150;2022-08-19T04:24:13;98403.34;;;18.94;77.59
71491;BME280;59307;50.060;9.150;2022-08-19T04:26:39;98396.97;;;18.95;77.87
71491;BME280;59307;50.060;9.150;2022-08-19T04:29:08;98396.50;;;18.93;78.18
71491;BME280;59307;50.060;9.150;2022-08-19T04:31:34;98398.72;;;18.91;78.09
71491;BME280;59307;50.060;9.150;2022-08-19T04:34:05;98398.25;;;18.89;78.54
71491;BME280;59307;50.060;9.150;2022-08-19T04:36:35;98397.16;;;18.90;78.41
71491;BME280;59307;50.060;9.150;2022-08-19T04:39:04;98400.25;;;18.92;78.57
71491;BME280;59307;50.060;9.150;2022-08-19T04:41:30;98397.91;;;18.99;77.79
71491;BME280;59307;50.060;9.150;2022-08-19T04:44:14;98394.34;;;19.03;77.08
71491;BME280;59307;50.060;9.150;2022-08-19T04:46:43;98391.09;;;18.98;77.79
71491;BME280;59307;50.060;9.150;2022-08-19T04:49:09;98397.13;;;18.98;78.07
71491;BME280;59307;50.060;9.150;2022-08-19T04:51:34;98404.75;;;19.00;78.15
71491;BME280;59307;50.060;9.150;2022-08-19T04:54:01;98402.88;;;18.92;78.47
71491;BME280;59307;50.060;9.150;2022-08-19T04:56:27;98404.91;;;18.86;78.69
71491;BME280;59307;50.060;9.150;2022-08-19T04:58:54;98408.75;;;18.72;79.42
71491;BME280;59307;50.060;9.150;2022-08-19T05:01:26;98421.31;;;18.75;79.47
71491;BME280;59307;50.060;9.150;2022-08-19T05:03:52;98427.19;;;18.80;79.10
71491;BME280;59307;50.060;9.150;2022-08-19T05:06:19;98425.50;;;18.84;79.63
71491;BME280;59307;50.060;9.150;2022-08-19T05:08:46;98430.78;;;18.84;79.47
71491;BME280;59307;50.060;9.150;2022-08-19T05:11:16;98427.84;;;18.94;79.08
71491;BME280;59307;50.060;9.150;2022-08-19T05:13:43;98423.19;;;18.83;79.04
71491;BME280;59307;50.060;9.150;2022-08-19T05:16:11;98431.09;;;18.83;79.82
71491;BME280;59307;50.060;9.150;2022-08-19T05:18:37;98440.53;;;18.84;79.74
71491;BME280;59307;50.060;9.150;2022-08-19T05:21:21;98435.13;;;18.89;79.77
71491;BME280;59307;50.060;9.150;2022-08-19T05:24:05;98430.00;;;18.92;79.42
71491;BME280;59307;50.060;9.150;2022-08-19T05:26:35;98417.44;;;18.81;79.54
71491;BME280;59307;50.060;9.150;2022-08-19T05:29:01;98426.59;;;18.83;79.99
71491;BME280;59307;50.060;9.150;2022-08-19T05:31:27;98428.13;;;18.84;79.84
71491;BME280;59307;50.060;9.150;2022-08-19T05:33:52;98439.94;;;18.87;80.27
71491;BME280;59307;50.060;9.150;2022-08-19T05:36:18;98441.31;;;18.84;80.19
71491;BME280;59307;50.060;9.150;2022-08-19T05:38:45;98442.25;;;18.88;80.19
71491;BME280;59307;50.060;9.150;2022-08-19T05:41:12;98445.03;;;18.92;80.01
71491;BME280;59307;50.060;9.150;2022-08-19T05:43:37;98443.50;;;18.91;80.00
71491;BME280;59307;50.060;9.150;2022-08-19T05:46:04;98435.59;;;18.91;79.72
71491;BME280;59307;50.060;9.150;2022-08-19T05:48:31;98440.69;;;18.96;79.50
71491;BME280;59307;50.060;9.150;2022-08-19T05:50:56;98445.34;;;18.99;80.31
71491;BME280;59307;50.060;9.150;2022-08-19T05:53:23;98448.44;;;19.01;79.68
71491;BME280;59307;50.060;9.150;2022-08-19T05:55:48;98443.31;;;18.87;80.19
71491;BME280;59307;50.060;9.150;2022-08-19T05:58:14;98444.72;;;18.85;80.38
71491;BME280;59307;50.060;9.150;2022-08-19T06:00:42;98447.81;;;18.87;80.69
71491;BME280;59307;50.060;9.150;2022-08-19T06:03:08;98443.19;;;18.92;80.22
71491;BME280;59307;50.060;9.150;2022-08-19T06:05:33;98462.09;;;19.03;80.08
71491;BME280;59307;50.060;9.150;2022-08-19T06:07:58;98465.34;;;19.08;79.73
71491;BME280;59307;50.060;9.150;2022-08-19T06:10:24;98480.41;;;19.16;79.79
71491;BME280;59307;50.060;9.150;2022-08-19T06:12:50;98484.28;;;19.27;79.76
71491;BME280;59307;50.060;9.150;2022-08-19T06:15:15;98486.91;;;19.36;79.56
71491;BME280;59307;50.060;9.150;2022-08-19T06:17:42;98488.16;;;19.30;79.20
71491;BME280;59307;50.060;9.150;2022-08-19T06:20:11;98484.13;;;19.33;79.77
71491;BME280;59307;50.060;9.150;2022-08-19T06:22:40;98486.91;;;19.36;79.38
71491;BME280;59307;50.060;9.150;2022-08-19T06:25:07;98498.88;;;19.34;79.83
71491;BME280;59307;50.060;9.150;2022-08-19T06:27:34;98490.50;;;19.32;79.62
71491;BME280;59307;50.060;9.150;2022-08-19T06:30:00;98495.44;;;19.42;79.54
71491;BME280;59307;50.060;9.150;2022-08-19T06:32:25;98498.41;;;19.57;79.11
71491;BME280;59307;50.060;9.150;2022-08-19T06:34:50;98500.56;;;19.55;79.05
71491;BME280;59307;50.060;9.150;2022-08-19T06:37:16;98504.59;;;19.61;78.73
71491;BME280;59307;50.060;9.150;2022-08-19T06:39:43;98505.06;;;19.63;78.91
71491;BME280;59307;50.060;9.150;2022-08-19T06:42:09;98505.84;;;19.55;78.51
71491;BME280;59307;50.060;9.150;2022-08-19T06:44:39;98505.22;;;19.58;78.88
71491;BME280;59307;50.060;9.150;2022-08-19T06:47:07;98508.31;;;19.60;78.60
71491;BME280;59307;50.060;9.150;2022-08-19T06:49:34;98513.28;;;19.53;78.85
71491;BME280;59307;50.060;9.150;2022-08-19T06:52:00;98522.28;;;19.52;79.00
71491;BME280;59307;50.060;9.150;2022-08-19T06:54:27;98520.44;;;19.44;79.28
71491;BME280;59307;50.060;9.150;2022-08-19T06:56:54;98530.06;;;19.49;78.92
71491;BME280;59307;50.060;9.150;2022-08-19T06:59:21;98527.09;;;19.50;78.70
71491;BME280;59307;50.060;9.150;2022-08-19T07:01:50;98524.00;;;19.48;79.13
71491;BME280;59307;50.060;9.150;2022-08-19T07:04:21;98529.28;;;19.48;79.25
71491;BME280;59307;50.060;9.150;2022-08-19T07:06:47;98532.22;;;19.55;79.25
71491;BME280;59307;50.060;9.150;2022-08-19T07:09:15;98536.25;;;19.61;79.02
71491;BME280;59307;50.060;9.150;2022-08-19T07:11:44;98538.09;;;19.61;79.10
71491;BME280;59307;50.060;9.150;2022-08-19T07:14:10;98540.09;;;19.64;79.13
71491;BME280;59307;50.060;9.150;2022-08-19T07:16:36;98540.44;;;19.71;78.59
71491;BME280;59307;50.060;9.150;2022-08-19T07:19:01;98538.25;;;19.64;79.05
71491;BME280;59307;50.060;9.150;2022-08-19T07:21:27;98529.88;;;19.71;78.66
71491;BME280;59307;50.060;9.150;2022-08-19T07:23:56;98540.59;;;19.74;78.44
71491;BME280;59307;50.060;9.150;2022-08-19T07:26:27;98534.69;;;19.69;79.31
71491;BME280;59307;50.060;9.150;2022-08-19T07:28:53;98539.50;;;19.67;78.69
71491;BME280;59307;50.060;9.150;2022-08-19T07:31:21;98542.28;;;19.70;79.31
71491;BME280;59307;50.060;9.150;2022-08-19T07:33:49;98544.78;;;19.67;79.40
71491;BME280;59307;50.060;9.150;2022-08-19T07:36:18;98547.09;;;19.68;79.12
71491;BME280;59307;50.060;9.150;2022-08-19T07:38:47;98546.63;;;19.83;78.33
71491;BME280;59307;50.060;9.150;2022-08-19T07:41:15;98545.53;;;19.84;77.82
71491;BME280;59307;50.060;9.150;2022-08-19T07:43:42;98542.88;;;19.84;78.93
71491;BME280;59307;50.060;9.150;2022-08-19T07:46:09;98545.81;;;20.00;78.69
71491;BME280;59307;50.060;9.150;2022-08-19T07:48:35;98549.53;;;20.07;78.07
71491;BME280;59307;50.060;9.150;2022-08-19T07:51:04;98549.50;;;20.16;77.86
71491;BME280;59307;50.060;9.150;2022-08-19T07:53:31;98553.09;;;20.20;77.62
71491;BME280;59307;50.060;9.150;2022-08-19T07:55:58;98558.84;;;20.05;77.63
71491;BME280;59307;50.060;9.150;2022-08-19T07:58:30;98570.94;;;20.14;77.53
71491;BME280;59307;50.060;9.150;2022-08-19T08:00:56;98565.69;;;20.06;77.78
71491;BME280;59307;50.060;9.150;2022-08-19T08:03:22;98566.16;;;20.08;77.59
71491;BME280;59307;50.060;9.150;2022-08-19T08:06:12;98569.53;;;20.17;77.79
71491;BME280;59307;50.060;9.150;2022-08-19T08:08:57;98565.19;;;20.30;77.52
71491;BME280;59307;50.060;9.150;2022-08-19T08:11:40;98565.44;;;20.45;77.01
71491;BME280;59307;50.060;9.150;2022-08-19T08:14:07;98556.88;;;20.57;76.40
71491;BME280;59307;50.060;9.150;2022-08-19T08:16:36;98569.81;;;20.79;75.79
71491;BME280;59307;50.060;9.150;2022-08-19T08:19:04;98559.00;;;21.01;74.82
71491;BME280;59307;50.060;9.150;2022-08-19T08:21:31;98567.31;;;21.11;74.15
71491;BME280;59307;50.060;9.150;2022-08-19T08:23:56;98580.06;;;21.18;73.26
71491;BME280;59307;50.060;9.150;2022-08-19T08:26:22;98572.88;;;21.18;72.94
71491;BME280;59307;50.060;9.150;2022-08-19T08:28:47;98574.97;;;21.34;73.30
71491;BME280;59307;50.060;9.150;2022-08-19T08:31:13;98569.22;;;21.32;73.11
71491;BME280;59307;50.060;9.150;2022-08-19T08:33:39;98561.47;;;21.47;72.43
71491;BME280;59307;50.060;9.150;2022-08-19T08:36:08;98563.63;;;21.74;71.81
71491;BME280;59307;50.060;9.150;2022-08-19T08:38:33;98556.41;;;21.83;71.06
71491;BME280;59307;50.060;9.150;2022-08-19T08:41:12;98556.50;;;21.66;71.50
71491;BME280;59307;50.060;9.150;2022-08-19T08:43:45;98559.22;;;21.58;71.52
71491;BME280;59307;50.060;9.150;2022-08-19T08:46:30;98557.47;;;21.62;71.56
71491;BME280;59307;50.060;9.150;2022-08-19T08:49:20;98562.88;;;21.65;70.72
71491;BME280;59307;50.060;9.150;2022-08-19T08:52:00;98565.03;;;21.92;69.75
71491;BME280;59307;50.060;9.150;2022-08-19T08:54:40;98560.63;;;21.76;70.42
71491;BME280;59307;50.060;9.150;2022-08-19T08:57:11;98562.63;;;21.99;69.77
71491;BME280;59307;50.060;9.150;2022-08-19T08:59:40;98559.88;;;22.08;69.13
71491;BME280;59307;50.060;9.150;2022-08-19T09:02:06;98559.16;;;22.44;68.52
71491;BME280;59307;50.060;9.150;2022-08-19T09:04:34;98559.22;;;22.80;67.42
71491;BME280;59307;50.060;9.150;2022-08-19T09:09:52;98557.69;;;22.67;68.29
71491;BME280;59307;50.060;9.150;2022-08-19T09:12:44;98567.19;;;22.56;66.25
71491;BME280;59307;50.060;9.150;2022-08-19T09:15:15;98566.06;;;22.57;66.43
71491;BME280;59307;50.060;9.150;2022-08-19T09:17:43;98566.16;;;22.60;65.21
71491;BME280;59307;50.060;9.150;2022-08-19T09:22:39;98557.00;;;22.70;66.08
71491;BME280;59307;50.060;9.150;2022-08-19T09:25:08;98562.56;;;22.77;65.05
71491;BME280;59307;50.060;9.150;2022-08-19T09:27:35;98561.66;;;22.85;63.30
71491;BME280;59307;50.060;9.150;2022-08-19T09:30:03;98562.53;;;22.89;63.41
71491;BME280;59307;50.060;9.150;2022-08-19T09:32:28;98567.94;;;23.04;64.14
71491;BME280;59307;50.060;9.150;2022-08-19T09:34:53;98563.88;;;22.95;62.38
71491;BME280;59307;50.060;9.150;2022-08-19T09:37:20;98572.47;;;23.16;62.48
71491;BME280;59307;50.060;9.150;2022-08-19T09:39:46;98566.06;;;22.93;61.82
71491;BME280;59307;50.060;9.150;2022-08-19T09:42:12;98579.78;;;22.95;62.48
71491;BME280;59307;50.060;9.150;2022-08-19T09:44:40;98573.03;;;22.73;62.17
71491;BME280;59307;50.060;9.150;2022-08-19T09:47:06;98572.50;;;22.80;62.82
71491;BME280;59307;50.060;9.150;2022-08-19T09:49:32;98570.03;;;22.87;61.77
71491;BME280;59307;50.060;9.150;2022-08-19T09:51:58;98585.09;;;22.95;62.98
71491;BME280;59307;50.060;9.150;2022-08-19T09:54:24;98579.78;;;22.71;61.80
71491;BME280;59307;50.060;9.150;2022-08-19T09:56:49;98573.25;;;22.92;62.39
71491;BME280;59307;50.060;9.150;2022-08-19T09:59:15;98569.47;;;23.05;60.90
71491;BME280;59307;50.060;9.150;2022-08-19T10:01:40;98566.84;;;22.81;61.21
71491;BME280;59307;50.060;9.150;2022-08-19T10:04:06;98571.03;;;23.06;60.13
71491;BME280;59307;50.060;9.150;2022-08-19T10:06:37;98572.03;;;23.02;62.75
71491;BME280;59307;50.060;9.150;2022-08-19T10:09:03;98580.00;;;23.14;61.95
71491;BME280;59307;50.060;9.150;2022-08-19T10:11:33;98568.03;;;23.32;60.53
71491;BME280;59307;50.060;9.150;2022-08-19T10:13:58;98567.44;;;23.51;58.94
71491;BME280;59307;50.060;9.150;2022-08-19T10:16:25;98567.28;;;23.59;59.07
71491;BME280;59307;50.060;9.150;2022-08-19T10:18:51;98560.44;;;23.58;56.64
71491;BME280;59307;50.060;9.150;2022-08-19T10:21:22;98560.91;;;23.48;57.58
71491;BME280;59307;50.060;9.150;2022-08-19T10:23:51;98549.84;;;23.58;57.72
71491;BME280;59307;50.060;9.150;2022-08-19T10:26:21;98558.31;;;24.04;56.40
71491;BME280;59307;50.060;9.150;2022-08-19T10:28:48;98554.63;;;24.24;56.00
71491;BME280;59307;50.060;9.150;2022-08-19T10:31:18;98553.34;;;24.33;56.50
71491;BME280;59307;50.060;9.150;2022-08-19T10:33:48;98549.50;;;24.46;55.11
71491;BME280;59307;50.060;9.150;2022-08-19T10:36:16;98543.91;;;24.51;53.66
71491;BME280;59307;50.060;9.150;2022-08-19T10:38:46;98548.28;;;24.44;52.25
71491;BME280;59307;50.060;9.150;2022-08-19T10:41:23;98542.91;;;24.56;54.05
71491;BME280;59307;50.060;9.150;2022-08-19T10:43:53;98541.78;;;24.26;52.33
71491;BME280;59307;50.060;9.150;2022-08-19T10:46:20;98538.69;;;24.24;53.36
71491;BME280;59307;50.060;9.150;2022-08-19T10:48:45;98527.69;;;24.10;52.91
71491;BME280;59307;50.060;9.150;2022-08-19T10:51:11;98523.94;;;24.26;51.95
71491;BME280;59307;50.060;9.150;2022-08-19T10:53:56;98515.63;;;24.74;50.63
71491;BME280;59307;50.060;9.150;2022-08-19T10:56:22;98508.44;;;25.48;49.35
71491;BME280;59307;50.060;9.150;2022-08-19T10:59:06;98503.00;;;26.24;49.35
71491;BME280;59307;50.060;9.150;2022-08-19T11:01:33;98499.72;;;26.57;48.26
71491;BME280;59307;50.060;9.150;2022-08-19T11:04:01;98502.88;;;26.40;47.46
71491;BME280;59307;50.060;9.150;2022-08-19T11:06:27;98488.63;;;26.29;47.73
71491;BME280;59307;50.060;9.150;2022-08-19T11:08:55;98483.03;;;26.37;47.78
71491;BME280;59307;50.060;9.150;2022-08-19T11:11:21;98505.31;;;26.03;47.37
71491;BME280;59307;50.060;9.150;2022-08-19T11:13:48;98512.91;;;26.24;48.65
71491;BME280;59307;50.060;9.150;2022-08-19T11:16:20;98519.31;;;26.19;47.64
71491;BME280;59307;50.060;9.150;2022-08-19T11:18:49;98509.59;;;25.88;48.47
71491;BME280;59307;50.060;9.150;2022-08-19T11:21:18;98508.38;;;25.82;48.50
71491;BME280;59307;50.060;9.150;2022-08-19T11:23:48;98502.97;;;26.02;49.00
71491;BME280;59307;50.060;9.150;2022-08-19T11:26:15;98507.59;;;25.63;48.59
71491;BME280;59307;50.060;9.150;2022-08-19T11:28:41;98501.78;;;25.19;49.96
71491;BME280;59307;50.060;9.150;2022-08-19T11:31:15;98503.03;;;25.25;49.94
71491;BME280;59307;50.060;9.150;2022-08-19T11:33:41;98504.25;;;25.66;49.89
71491;BME280;59307;50.060;9.150;2022-08-19T11:36:07;98496.13;;;26.01;47.41
71491;BME280;59307;50.060;9.150;2022-08-19T11:38:33;98500.25;;;25.98;48.24
71491;BME280;59307;50.060;9.150;2022-08-19T11:41:02;98501.53;;;26.27;45.79
71491;BME280;59307;50.060;9.150;2022-08-19T11:43:28;98491.03;;;26.63;47.30
71491;BME280;59307;50.060;9.150;2022-08-19T11:45:54;98492.25;;;27.22;45.28
71491;BME280;59307;50.060;9.150;2022-08-19T11:48:20;98491.75;;;27.13;44.45
71491;BME280;59307;50.060;9.150;2022-08-19T11:50:52;98493.06;;;26.96;46.76
71491;BME280;59307;50.060;9.150;2022-08-19T11:53:20;98490.63;;;26.35;46.48
71491;BME280;59307;50.060;9.150;2022-08-19T11:55:46;98486.25;;;26.24;47.18
71491;BME280;59307;50.060;9.150;2022-08-19T11:58:13;98484.50;;;26.09;47.83
71491;BME280;59307;50.060;9.150;2022-08-19T12:00:40;98478.91;;;26.17;47.31
71491;BME280;59307;50.060;9.150;2022-08-19T12:03:05;98469.13;;;26.73;47.20
71491;BME280;59307;50.060;9.150;2022-08-19T12:05:31;98471.22;;;27.17;46.82
71491;BME280;59307;50.060;9.150;2022-08-19T12:07:56;98472.59;;;27.33;46.26
71491;BME280;59307;50.060;9.150;2022-08-19T12:10:22;98466.28;;;27.48;45.05
71491;BME280;59307;50.060;9.150;2022-08-19T12:12:48;98469.69;;;27.19;44.19
71491;BME280;59307;50.060;9.150;2022-08-19T12:15:13;98464.56;;;27.33;43.74
71491;BME280;59307;50.060;9.150;2022-08-19T12:17:40;98453.69;;;27.19;43.69
71491;BME280;59307;50.060;9.150;2022-08-19T12:20:08;98454.13;;;26.92;44.10
71491;BME280;59307;50.060;9.150;2022-08-19T12:22:37;98444.34;;;26.73;46.41
71491;BME280;59307;50.060;9.150;2022-08-19T12:25:04;98450.91;;;27.42;44.82
71491;BME280;59307;50.060;9.150;2022-08-19T12:27:30;98453.38;;;27.57;43.25
71491;BME280;59307;50.060;9.150;2022-08-19T12:29:56;98461.31;;;27.87;43.74
71491;BME280;59307;50.060;9.150;2022-08-19T12:32:21;98454.16;;;27.28;42.44
71491;BME280;59307;50.060;9.150;2022-08-19T12:34:47;98448.19;;;26.75;44.72
71491;BME280;59307;50.060;9.150;2022-08-19T12:37:12;98447.41;;;26.75;45.30
71491;BME280;59307;50.060;9.150;2022-08-19T12:39:41;98446.06;;;26.62;44.91
71491;BME280;59307;50.060;9.150;2022-08-19T12:42:10;98442.22;;;26.86;45.52
71491;BME280;59307;50.060;9.150;2022-08-19T12:44:38;98445.84;;;27.66;43.15
71491;BME280;59307;50.060;9.150;2022-08-19T12:47:05;98447.22;;;27.53;42.23
71491;BME280;59307;50.060;9.150;2022-08-19T12:49:31;98445.22;;;27.80;43.24
71491;BME280;59307;50.060;9.150;2022-08-19T12:52:01;98444.81;;;27.41;42.53
71491;BME280;59307;50.060;9.150;2022-08-19T12:54:27;98454.34;;;27.09;44.77
71491;BME280;59307;50.060;9.150;2022-08-19T12:56:52;98449.34;;;26.78;45.19
71491;BME280;59307;50.060;9.150;2022-08-19T12:59:17;98451.22;;;26.48;43.82
71491;BME280;59307;50.060;9.150;2022-08-19T13:01:44;98455.50;;;26.30;44.22
71491;BME280;59307;50.060;9.150;2022-08-19T13:04:10;98454.31;;;25.82;44.39
71491;BME280;59307;50.060;9.150;2022-08-19T13:06:36;98461.72;;;25.69;46.66
71491;BME280;59307;50.060;9.150;2022-08-19T13:09:02;98466.38;;;25.76;46.05